Miami, FL

3:14 AM EDT on July 25, 2016 (GMT -0400)
Little Havana-West Flagler Street in Miami Florida | | Change Station

Elev 13 ft 25.77 °N, 80.25 °W | Updated 45 seconds ago

Mostly Cloudy
Mostly Cloudy
79.2 °F
Feels Like 83 °F
N
0.0
Wind Variable Wind from SSW
Gusts 0.0 mph

Today
High -- | Low -- °F
--% Chance of Precip.
Yesterday
High -- | Low -- °F
Precip. -- in
Pressure 30.04 in
Visibility 10.0 miles
Clouds Few 2000 ft
Mostly Cloudy 14000 ft
Mostly Cloudy 25000 ft
Heat Index 83 °F
Dew Point 74 °F
Humidity 85%
Rainfall 0.00 in
Snow Depth Not available.
6:44 AM 8:10 PM
Waning Gibbous, 68% visible
METAR KMIA 250653Z 08003KT 10SM FEW020 BKN140 BKN250 27/23 A3004 RMK AO2 SLP172 T02670233
Pressure 30.04 in
Visibility 10.0 miles
Clouds Few 2000 ft
Mostly Cloudy 14000 ft
Mostly Cloudy 25000 ft
Heat Index 83 °F
Dew Point 74 °F
Humidity 85%
Rainfall 0.00 in
Snow Depth Not available.
6:44 AM 8:10 PM
Waning Gibbous, 68% visible
METAR KMIA 250653Z 08003KT 10SM FEW020 BKN140 BKN250 27/23 A3004 RMK AO2 SLP172 T02670233

10-Day Weather Forecast

Almanac

Astronomy

Jul. 25, 2016 Rise Set
Actual Time
Civil Twilight
Nautical Twilight
Astronomical Twilight
Moon
Length of Visible Light
Length of Day
Tomorrow will be .
, % of the Moon is Illuminated

Today's Extremes

State Highs State Lows

Community

WunderPhotos

Upload Photos

1,927,274 photos uploaded!

WunderBlog® & News

Nearby

Air Quality

  Air Quality AQ Index Pollutant
Not available.

Snow Depth

Station Depth Elevation

Earthquake Activity

City Distance Mag. Time & Date
Minimum magnitude displayed is 2.5.

Coastal Water Temperatures

Place Temperature

Stations

Nearby Weather Stations

Station Location Temp. Windchill Dew Point Humidity Wind Precip. Elev Updated Type
                   

Watches & Warnings

There are currently no watches in effect.